sensor_id;sensor_type;location;lat;lon;timestamp;temperature;humidity
35603;DHT22;21725;50.836;4.368;2023-02-19T00:00:53;13.30;99.90
35603;DHT22;21725;50.836;4.368;2023-02-19T00:03:56;13.50;99.90
35603;DHT22;21725;50.836;4.368;2023-02-19T00:06:58;13.60;99.90
35603;DHT22;21725;50.836;4.368;2023-02-19T00:09:59;13.60;99.90
35603;DHT22;21725;50.836;4.368;2023-02-19T00:12:59;13.60;99.90
35603;DHT22;21725;50.836;4.368;2023-02-19T00:16:07;13.70;99.90
35603;DHT22;21725;50.836;4.368;2023-02-19T00:19:12;13.90;99.90
35603;DHT22;21725;50.836;4.368;2023-02-19T00:22:13;13.60;99.90
35603;DHT22;21725;50.836;4.368;2023-02-19T00:25:14;13.60;99.90
35603;DHT22;21725;50.836;4.368;2023-02-19T00:28:15;13.80;99.90
35603;DHT22;21725;50.836;4.368;2023-02-19T00:34:23;13.80;99.90
35603;DHT22;21725;50.836;4.368;2023-02-19T00:37:26;13.70;99.90
35603;DHT22;21725;50.836;4.368;2023-02-19T00:40:27;13.80;99.90
35603;DHT22;21725;50.836;4.368;2023-02-19T00:43:27;13.90;99.90
35603;DHT22;21725;50.836;4.368;2023-02-19T00:46:42;13.90;99.90
35603;DHT22;21725;50.836;4.368;2023-02-19T00:49:45;14.00;99.90
35603;DHT22;21725;50.836;4.368;2023-02-19T00:52:46;13.90;99.90
35603;DHT22;21725;50.836;4.368;2023-02-19T00:55:46;14.00;99.90
35603;DHT22;21725;50.836;4.368;2023-02-19T00:58:50;13.90;99.90
35603;DHT22;21725;50.836;4.368;2023-02-19T01:01:51;13.90;99.90
35603;DHT22;21725;50.836;4.368;2023-02-19T01:04:52;13.90;99.90
35603;DHT22;21725;50.836;4.368;2023-02-19T01:07:52;13.90;99.90
35603;DHT22;21725;50.836;4.368;2023-02-19T01:10:53;13.80;99.90
35603;DHT22;21725;50.836;4.368;2023-02-19T01:14:03;13.80;99.90
35603;DHT22;21725;50.836;4.368;2023-02-19T01:17:04;13.90;99.90
35603;DHT22;21725;50.836;4.368;2023-02-19T01:20:08;13.80;99.90
35603;DHT22;21725;50.836;4.368;2023-02-19T01:23:10;13.70;99.90
35603;DHT22;21725;50.836;4.368;2023-02-19T01:26:15;13.90;99.90
35603;DHT22;21725;50.836;4.368;2023-02-19T01:29:16;13.80;99.90
35603;DHT22;21725;50.836;4.368;2023-02-19T01:32:17;13.70;99.90
35603;DHT22;21725;50.836;4.368;2023-02-19T01:35:18;13.80;99.90
35603;DHT22;21725;50.836;4.368;2023-02-19T01:38:18;13.80;99.90
35603;DHT22;21725;50.836;4.368;2023-02-19T01:41:22;13.80;99.90
35603;DHT22;21725;50.836;4.368;2023-02-19T01:47:27;13.90;99.90
35603;DHT22;21725;50.836;4.368;2023-02-19T01:50:35;13.80;99.90
35603;DHT22;21725;50.836;4.368;2023-02-19T01:53:39;13.80;99.90
35603;DHT22;21725;50.836;4.368;2023-02-19T01:56:42;13.80;99.90
35603;DHT22;21725;50.836;4.368;2023-02-19T01:59:45;13.80;99.90
35603;DHT22;21725;50.836;4.368;2023-02-19T02:02:49;13.70;99.90
35603;DHT22;21725;50.836;4.368;2023-02-19T02:09:27;13.90;99.90
35603;DHT22;21725;50.836;4.368;2023-02-19T02:12:47;13.80;99.90
35603;DHT22;21725;50.836;4.368;2023-02-19T02:32:19;13.60;99.90
35603;DHT22;21725;50.836;4.368;2023-02-19T02:35:24;13.50;99.90
35603;DHT22;21725;50.836;4.368;2023-02-19T02:38:30;13.40;99.90
35603;DHT22;21725;50.836;4.368;2023-02-19T02:41:32;13.50;99.90
35603;DHT22;21725;50.836;4.368;2023-02-19T02:44:34;13.50;99.90
35603;DHT22;21725;50.836;4.368;2023-02-19T02:51:37;13.30;99.90
35603;DHT22;21725;50.836;4.368;2023-02-19T02:54:40;13.30;99.90
35603;DHT22;21725;50.836;4.368;2023-02-19T02:57:59;13.40;99.90
35603;DHT22;21725;50.836;4.368;2023-02-19T03:01:08;13.40;99.90
35603;DHT22;21725;50.836;4.368;2023-02-19T03:11:15;13.50;99.90
35603;DHT22;21725;50.836;4.368;2023-02-19T03:14:45;13.50;99.90
35603;DHT22;21725;50.836;4.368;2023-02-19T03:18:08;13.40;99.90
35603;DHT22;21725;50.836;4.368;2023-02-19T03:21:28;13.40;99.90
35603;DHT22;21725;50.836;4.368;2023-02-19T03:24:31;13.40;99.90
35603;DHT22;21725;50.836;4.368;2023-02-19T03:28:00;13.40;99.90
35603;DHT22;21725;50.836;4.368;2023-02-19T03:31:02;13.50;99.90
35603;DHT22;21725;50.836;4.368;2023-02-19T03:34:09;13.60;99.90
35603;DHT22;21725;50.836;4.368;2023-02-19T03:37:20;13.40;99.90
35603;DHT22;21725;50.836;4.368;2023-02-19T03:40:26;13.30;99.90
35603;DHT22;21725;50.836;4.368;2023-02-19T03:46:54;13.50;99.90
35603;DHT22;21725;50.836;4.368;2023-02-19T03:50:02;13.60;99.90
35603;DHT22;21725;50.836;4.368;2023-02-19T03:53:30;13.50;99.90
35603;DHT22;21725;50.836;4.368;2023-02-19T03:56:37;13.00;99.90
35603;DHT22;21725;50.836;4.368;2023-02-19T03:59:50;13.40;99.90
35603;DHT22;21725;50.836;4.368;2023-02-19T04:03:10;13.40;99.90
35603;DHT22;21725;50.836;4.368;2023-02-19T04:06:17;13.50;99.90
35603;DHT22;21725;50.836;4.368;2023-02-19T04:09:22;13.40;99.90
35603;DHT22;21725;50.836;4.368;2023-02-19T04:12:24;13.40;99.90
35603;DHT22;21725;50.836;4.368;2023-02-19T04:15:29;13.30;99.90
35603;DHT22;21725;50.836;4.368;2023-02-19T04:18:35;13.30;99.90
35603;DHT22;21725;50.836;4.368;2023-02-19T04:21:39;13.30;99.90
35603;DHT22;21725;50.836;4.368;2023-02-19T04:24:48;13.50;99.90
35603;DHT22;21725;50.836;4.368;2023-02-19T04:27:49;13.50;99.90
35603;DHT22;21725;50.836;4.368;2023-02-19T04:30:50;13.40;99.90
35603;DHT22;21725;50.836;4.368;2023-02-19T04:33:51;13.50;99.90
35603;DHT22;21725;50.836;4.368;2023-02-19T04:36:52;13.50;99.90
35603;DHT22;21725;50.836;4.368;2023-02-19T04:39:52;13.30;99.90
35603;DHT22;21725;50.836;4.368;2023-02-19T04:42:53;13.40;99.90
35603;DHT22;21725;50.836;4.368;2023-02-19T04:45:58;13.60;99.90
35603;DHT22;21725;50.836;4.368;2023-02-19T04:48:59;13.70;99.90
35603;DHT22;21725;50.836;4.368;2023-02-19T04:52:00;13.50;99.90
35603;DHT22;21725;50.836;4.368;2023-02-19T04:55:01;13.40;99.90
35603;DHT22;21725;50.836;4.368;2023-02-19T04:58:02;13.30;99.90
35603;DHT22;21725;50.836;4.368;2023-02-19T05:24:49;10.40;99.90
35603;DHT22;21725;50.836;4.368;2023-02-19T05:27:50;10.60;99.90
35603;DHT22;21725;50.836;4.368;2023-02-19T05:31:11;11.20;99.90
35603;DHT22;21725;50.836;4.368;2023-02-19T05:34:12;12.00;99.90
35603;DHT22;21725;50.836;4.368;2023-02-19T05:37:13;12.50;99.90
35603;DHT22;21725;50.836;4.368;2023-02-19T05:40:16;13.00;99.90
35603;DHT22;21725;50.836;4.368;2023-02-19T05:43:17;13.00;99.90
35603;DHT22;21725;50.836;4.368;2023-02-19T05:46:25;13.00;99.90
35603;DHT22;21725;50.836;4.368;2023-02-19T05:49:28;13.10;99.90
35603;DHT22;21725;50.836;4.368;2023-02-19T05:52:29;13.30;99.90
35603;DHT22;21725;50.836;4.368;2023-02-19T05:55:34;13.40;99.90
35603;DHT22;21725;50.836;4.368;2023-02-19T05:58:35;13.40;99.90
35603;DHT22;21725;50.836;4.368;2023-02-19T06:01:38;13.40;99.90
35603;DHT22;21725;50.836;4.368;2023-02-19T06:04:39;13.40;99.90
35603;DHT22;21725;50.836;4.368;2023-02-19T06:07:39;13.50;99.90
35603;DHT22;21725;50.836;4.368;2023-02-19T06:10:42;13.40;99.90
35603;DHT22;21725;50.836;4.368;2023-02-19T06:13:43;13.30;99.90
35603;DHT22;21725;50.836;4.368;2023-02-19T06:16:44;13.30;99.90
35603;DHT22;21725;50.836;4.368;2023-02-19T06:19:45;13.20;99.90
35603;DHT22;21725;50.836;4.368;2023-02-19T06:22:48;13.20;99.90
35603;DHT22;21725;50.836;4.368;2023-02-19T06:25:49;13.10;99.90
35603;DHT22;21725;50.836;4.368;2023-02-19T06:28:51;13.20;99.90
35603;DHT22;21725;50.836;4.368;2023-02-19T06:31:52;13.00;99.90
35603;DHT22;21725;50.836;4.368;2023-02-19T06:34:53;13.10;99.90
35603;DHT22;21725;50.836;4.368;2023-02-19T06:37:56;13.20;99.90
35603;DHT22;21725;50.836;4.368;2023-02-19T06:41:01;13.20;99.90
35603;DHT22;21725;50.836;4.368;2023-02-19T06:44:03;13.20;99.90
35603;DHT22;21725;50.836;4.368;2023-02-19T06:47:07;13.10;99.90
35603;DHT22;21725;50.836;4.368;2023-02-19T06:50:08;13.30;99.90
35603;DHT22;21725;50.836;4.368;2023-02-19T06:53:08;13.40;99.90
35603;DHT22;21725;50.836;4.368;2023-02-19T06:56:29;13.40;99.90
35603;DHT22;21725;50.836;4.368;2023-02-19T06:59:32;13.30;99.90
35603;DHT22;21725;50.836;4.368;2023-02-19T07:02:33;13.40;99.90
35603;DHT22;21725;50.836;4.368;2023-02-19T07:05:33;13.50;99.90
35603;DHT22;21725;50.836;4.368;2023-02-19T07:08:34;13.40;99.90
35603;DHT22;21725;50.836;4.368;2023-02-19T07:11:37;13.40;99.90
35603;DHT22;21725;50.836;4.368;2023-02-19T07:14:38;13.50;99.90
35603;DHT22;21725;50.836;4.368;2023-02-19T07:17:39;13.40;99.90
35603;DHT22;21725;50.836;4.368;2023-02-19T07:20:39;13.30;99.90
35603;DHT22;21725;50.836;4.368;2023-02-19T07:23:41;13.50;99.90
35603;DHT22;21725;50.836;4.368;2023-02-19T07:26:42;13.60;99.90
35603;DHT22;21725;50.836;4.368;2023-02-19T07:29:45;13.70;99.90
35603;DHT22;21725;50.836;4.368;2023-02-19T07:32:46;13.60;99.90
35603;DHT22;21725;50.836;4.368;2023-02-19T07:35:48;13.70;99.90
35603;DHT22;21725;50.836;4.368;2023-02-19T07:38:54;13.70;99.90
35603;DHT22;21725;50.836;4.368;2023-02-19T07:41:55;13.70;99.90
35603;DHT22;21725;50.836;4.368;2023-02-19T07:44:56;13.60;99.90
35603;DHT22;21725;50.836;4.368;2023-02-19T07:47:58;13.50;99.90
35603;DHT22;21725;50.836;4.368;2023-02-19T07:50:59;13.60;99.90
35603;DHT22;21725;50.836;4.368;2023-02-19T07:54:00;13.70;99.90
35603;DHT22;21725;50.836;4.368;2023-02-19T07:57:01;13.80;99.90
35603;DHT22;21725;50.836;4.368;2023-02-19T08:00:05;13.70;99.90
35603;DHT22;21725;50.836;4.368;2023-02-19T08:03:06;13.80;99.90
35603;DHT22;21725;50.836;4.368;2023-02-19T08:06:07;13.90;99.90
35603;DHT22;21725;50.836;4.368;2023-02-19T08:09:08;13.90;99.90
35603;DHT22;21725;50.836;4.368;2023-02-19T08:12:10;13.70;99.90
35603;DHT22;21725;50.836;4.368;2023-02-19T08:15:31;13.80;99.90
35603;DHT22;21725;50.836;4.368;2023-02-19T08:18:32;14.00;99.90
35603;DHT22;21725;50.836;4.368;2023-02-19T08:21:33;14.00;99.90
35603;DHT22;21725;50.836;4.368;2023-02-19T08:24:34;14.00;99.90
35603;DHT22;21725;50.836;4.368;2023-02-19T08:27:37;14.00;99.90
35603;DHT22;21725;50.836;4.368;2023-02-19T08:30:39;13.90;99.90
35603;DHT22;21725;50.836;4.368;2023-02-19T08:33:40;14.00;99.90
35603;DHT22;21725;50.836;4.368;2023-02-19T08:36:41;14.20;99.90
35603;DHT22;21725;50.836;4.368;2023-02-19T08:39:43;14.30;99.90
35603;DHT22;21725;50.836;4.368;2023-02-19T08:42:44;14.50;99.90
35603;DHT22;21725;50.836;4.368;2023-02-19T08:45:45;14.50;99.90
35603;DHT22;21725;50.836;4.368;2023-02-19T08:48:49;14.30;99.90
35603;DHT22;21725;50.836;4.368;2023-02-19T08:51:50;14.30;99.90
35603;DHT22;21725;50.836;4.368;2023-02-19T08:54:53;14.30;99.90
35603;DHT22;21725;50.836;4.368;2023-02-19T08:57:54;14.10;99.90
35603;DHT22;21725;50.836;4.368;2023-02-19T09:00:55;14.30;99.90
35603;DHT22;21725;50.836;4.368;2023-02-19T09:03:55;14.10;99.90
35603;DHT22;21725;50.836;4.368;2023-02-19T09:06:56;13.70;99.90
35603;DHT22;21725;50.836;4.368;2023-02-19T09:09:58;13.60;99.90
35603;DHT22;21725;50.836;4.368;2023-02-19T09:12:58;13.70;99.90
35603;DHT22;21725;50.836;4.368;2023-02-19T09:16:04;13.60;99.90
35603;DHT22;21725;50.836;4.368;2023-02-19T09:19:05;13.70;99.90
35603;DHT22;21725;50.836;4.368;2023-02-19T09:22:06;13.90;99.90
35603;DHT22;21725;50.836;4.368;2023-02-19T09:25:07;13.90;99.90
35603;DHT22;21725;50.836;4.368;2023-02-19T09:28:07;13.80;99.90
35603;DHT22;21725;50.836;4.368;2023-02-19T09:31:10;13.90;99.90
35603;DHT22;21725;50.836;4.368;2023-02-19T09:34:12;14.10;99.90
35603;DHT22;21725;50.836;4.368;2023-02-19T09:37:12;13.90;99.90
35603;DHT22;21725;50.836;4.368;2023-02-19T09:40:13;14.00;99.90
35603;DHT22;21725;50.836;4.368;2023-02-19T09:43:18;14.00;99.90
35603;DHT22;21725;50.836;4.368;2023-02-19T09:49:39;14.10;99.90
35603;DHT22;21725;50.836;4.368;2023-02-19T09:52:48;14.20;99.90
35603;DHT22;21725;50.836;4.368;2023-02-19T09:55:51;14.30;99.90
35603;DHT22;21725;50.836;4.368;2023-02-19T09:58:55;14.40;99.90
35603;DHT22;21725;50.836;4.368;2023-02-19T10:02:14;14.50;99.90
35603;DHT22;21725;50.836;4.368;2023-02-19T10:05:16;14.50;99.90
35603;DHT22;21725;50.836;4.368;2023-02-19T10:08:19;14.50;99.90
35603;DHT22;21725;50.836;4.368;2023-02-19T10:11:22;14.40;99.90
35603;DHT22;21725;50.836;4.368;2023-02-19T10:14:46;14.50;99.90
35603;DHT22;21725;50.836;4.368;2023-02-19T10:17:51;14.60;99.90
35603;DHT22;21725;50.836;4.368;2023-02-19T10:20:53;14.80;99.90
35603;DHT22;21725;50.836;4.368;2023-02-19T10:24:05;14.70;99.90
35603;DHT22;21725;50.836;4.368;2023-02-19T10:27:14;14.50;99.90
35603;DHT22;21725;50.836;4.368;2023-02-19T10:30:20;14.30;99.90
35603;DHT22;21725;50.836;4.368;2023-02-19T10:33:22;14.30;99.90
35603;DHT22;21725;50.836;4.368;2023-02-19T10:36:38;14.20;99.90
35603;DHT22;21725;50.836;4.368;2023-02-19T10:40:03;14.30;99.90
35603;DHT22;21725;50.836;4.368;2023-02-19T10:43:32;14.30;99.90
35603;DHT22;21725;50.836;4.368;2023-02-19T10:46:47;14.30;99.90
35603;DHT22;21725;50.836;4.368;2023-02-19T10:50:17;14.50;99.90
35603;DHT22;21725;50.836;4.368;2023-02-19T10:53:23;14.50;99.90
35603;DHT22;21725;50.836;4.368;2023-02-19T10:56:37;14.20;99.90
35603;DHT22;21725;50.836;4.368;2023-02-19T10:59:51;14.10;99.90
35603;DHT22;21725;50.836;4.368;2023-02-19T11:22:51;11.80;99.90
35603;DHT22;21725;50.836;4.368;2023-02-19T11:26:01;12.20;99.90
35603;DHT22;21725;50.836;4.368;2023-02-19T11:29:17;12.80;99.90
35603;DHT22;21725;50.836;4.368;2023-02-19T11:32:38;13.50;99.90
35603;DHT22;21725;50.836;4.368;2023-02-19T11:35:41;14.10;99.90
35603;DHT22;21725;50.836;4.368;2023-02-19T11:38:42;14.30;99.90
35603;DHT22;21725;50.836;4.368;2023-02-19T11:42:11;14.20;99.90
35603;DHT22;21725;50.836;4.368;2023-02-19T11:45:37;14.30;99.90
35603;DHT22;21725;50.836;4.368;2023-02-19T12:02:39;14.50;99.80
35603;DHT22;21725;50.836;4.368;2023-02-19T12:09:25;14.40;99.90
35603;DHT22;21725;50.836;4.368;2023-02-19T12:19:49;14.60;99.40
35603;DHT22;21725;50.836;4.368;2023-02-19T12:26:53;14.70;99.10
35603;DHT22;21725;50.836;4.368;2023-02-19T12:43:21;15.00;99.00
35603;DHT22;21725;50.836;4.368;2023-02-19T12:46:32;15.00;98.70
35603;DHT22;21725;50.836;4.368;2023-02-19T12:49:38;15.10;98.40
35603;DHT22;21725;50.836;4.368;2023-02-19T12:52:42;15.00;98.40
35603;DHT22;21725;50.836;4.368;2023-02-19T12:55:46;14.90;98.50
35603;DHT22;21725;50.836;4.368;2023-02-19T12:59:12;15.00;98.40
35603;DHT22;21725;50.836;4.368;2023-02-19T13:02:22;15.00;98.00
35603;DHT22;21725;50.836;4.368;2023-02-19T13:08:47;14.60;98.20
35603;DHT22;21725;50.836;4.368;2023-02-19T13:12:11;14.30;98.60
35603;DHT22;21725;50.836;4.368;2023-02-19T13:18:34;14.00;99.50
35603;DHT22;21725;50.836;4.368;2023-02-19T13:21:37;14.10;99.30
35603;DHT22;21725;50.836;4.368;2023-02-19T13:24:57;14.00;99.50
35603;DHT22;21725;50.836;4.368;2023-02-19T13:28:10;14.20;99.20
35603;DHT22;21725;50.836;4.368;2023-02-19T13:31:26;14.30;98.90
35603;DHT22;21725;50.836;4.368;2023-02-19T13:37:52;13.80;99.70
35603;DHT22;21725;50.836;4.368;2023-02-19T13:40:56;13.80;99.50
35603;DHT22;21725;50.836;4.368;2023-02-19T13:44:06;13.80;99.30
35603;DHT22;21725;50.836;4.368;2023-02-19T13:50:50;14.10;99.20
35603;DHT22;21725;50.836;4.368;2023-02-19T13:54:40;14.20;98.90
35603;DHT22;21725;50.836;4.368;2023-02-19T13:57:40;14.20;98.80
35603;DHT22;21725;50.836;4.368;2023-02-19T14:00:49;14.10;99.00
35603;DHT22;21725;50.836;4.368;2023-02-19T14:03:53;14.10;99.20
35603;DHT22;21725;50.836;4.368;2023-02-19T14:10:10;14.20;98.20
35603;DHT22;21725;50.836;4.368;2023-02-19T14:16:54;14.30;98.30
35603;DHT22;21725;50.836;4.368;2023-02-19T14:19:57;14.10;98.60
35603;DHT22;21725;50.836;4.368;2023-02-19T14:23:07;14.00;99.00
35603;DHT22;21725;50.836;4.368;2023-02-19T14:26:14;14.10;98.60
35603;DHT22;21725;50.836;4.368;2023-02-19T14:29:17;14.10;98.60
35603;DHT22;21725;50.836;4.368;2023-02-19T14:32:18;14.00;98.90
35603;DHT22;21725;50.836;4.368;2023-02-19T14:35:28;14.00;98.60
35603;DHT22;21725;50.836;4.368;2023-02-19T14:38:37;13.90;98.80
35603;DHT22;21725;50.836;4.368;2023-02-19T14:41:41;13.90;98.70
35603;DHT22;21725;50.836;4.368;2023-02-19T14:44:55;13.90;98.50
35603;DHT22;21725;50.836;4.368;2023-02-19T14:47:57;13.80;98.70
35603;DHT22;21725;50.836;4.368;2023-02-19T14:51:03;13.70;99.10
35603;DHT22;21725;50.836;4.368;2023-02-19T14:54:34;13.50;99.70
35603;DHT22;21725;50.836;4.368;2023-02-19T14:57:42;13.50;99.80
35603;DHT22;21725;50.836;4.368;2023-02-19T15:00:47;13.60;99.80
35603;DHT22;21725;50.836;4.368;2023-02-19T15:03:48;13.60;99.40
35603;DHT22;21725;50.836;4.368;2023-02-19T15:06:49;13.70;99.20
35603;DHT22;21725;50.836;4.368;2023-02-19T15:09:57;13.60;99.10
35603;DHT22;21725;50.836;4.368;2023-02-19T15:13:09;13.60;99.30
35603;DHT22;21725;50.836;4.368;2023-02-19T15:16:18;13.80;99.20
35603;DHT22;21725;50.836;4.368;2023-02-19T15:19:20;14.00;98.80
35603;DHT22;21725;50.836;4.368;2023-02-19T15:22:24;14.30;98.20
35603;DHT22;21725;50.836;4.368;2023-02-19T15:25:32;14.10;98.50
35603;DHT22;21725;50.836;4.368;2023-02-19T15:28:35;13.90;98.80
35603;DHT22;21725;50.836;4.368;2023-02-19T15:31:47;13.70;99.10
35603;DHT22;21725;50.836;4.368;2023-02-19T15:34:59;13.70;99.30
35603;DHT22;21725;50.836;4.368;2023-02-19T15:38:03;14.00;98.60
35603;DHT22;21725;50.836;4.368;2023-02-19T15:41:04;13.90;98.80
35603;DHT22;21725;50.836;4.368;2023-02-19T15:50:41;13.40;99.90
35603;DHT22;21725;50.836;4.368;2023-02-19T15:53:48;13.70;99.80
35603;DHT22;21725;50.836;4.368;2023-02-19T15:56:51;13.70;99.40
35603;DHT22;21725;50.836;4.368;2023-02-19T16:00:19;13.70;99.30
35603;DHT22;21725;50.836;4.368;2023-02-19T16:03:24;13.60;99.70
35603;DHT22;21725;50.836;4.368;2023-02-19T16:06:26;13.50;99.70
35603;DHT22;21725;50.836;4.368;2023-02-19T16:09:29;13.40;99.90
35603;DHT22;21725;50.836;4.368;2023-02-19T16:12:30;13.30;99.90
35603;DHT22;21725;50.836;4.368;2023-02-19T16:15:32;13.40;99.70
35603;DHT22;21725;50.836;4.368;2023-02-19T16:18:36;13.30;99.90
35603;DHT22;21725;50.836;4.368;2023-02-19T16:21:37;13.10;99.90
35603;DHT22;21725;50.836;4.368;2023-02-19T16:24:43;13.00;99.90
35603;DHT22;21725;50.836;4.368;2023-02-19T16:27:45;13.10;99.90
35603;DHT22;21725;50.836;4.368;2023-02-19T16:30:45;13.20;99.90
35603;DHT22;21725;50.836;4.368;2023-02-19T16:33:54;13.20;99.90
35603;DHT22;21725;50.836;4.368;2023-02-19T16:36:57;13.00;99.90
35603;DHT22;21725;50.836;4.368;2023-02-19T16:46:12;13.10;99.90
35603;DHT22;21725;50.836;4.368;2023-02-19T16:49:13;13.10;99.90
35603;DHT22;21725;50.836;4.368;2023-02-19T16:52:14;13.30;99.90
35603;DHT22;21725;50.836;4.368;2023-02-19T16:55:16;13.10;99.90
35603;DHT22;21725;50.836;4.368;2023-02-19T16:58:17;12.80;99.90
35603;DHT22;21725;50.836;4.368;2023-02-19T17:23:12;10.10;99.90
35603;DHT22;21725;50.836;4.368;2023-02-19T17:26:15;10.10;99.90
35603;DHT22;21725;50.836;4.368;2023-02-19T17:29:17;10.50;99.90
35603;DHT22;21725;50.836;4.368;2023-02-19T17:32:19;11.20;99.90
35603;DHT22;21725;50.836;4.368;2023-02-19T17:35:20;11.80;99.90
35603;DHT22;21725;50.836;4.368;2023-02-19T17:38:20;12.20;99.90
35603;DHT22;21725;50.836;4.368;2023-02-19T17:41:21;12.30;99.90
35603;DHT22;21725;50.836;4.368;2023-02-19T17:44:22;12.70;99.90
35603;DHT22;21725;50.836;4.368;2023-02-19T17:47:23;12.80;99.90
35603;DHT22;21725;50.836;4.368;2023-02-19T17:50:31;12.90;99.90
35603;DHT22;21725;50.836;4.368;2023-02-19T17:53:32;12.90;99.90
35603;DHT22;21725;50.836;4.368;2023-02-19T17:56:35;12.80;99.90
35603;DHT22;21725;50.836;4.368;2023-02-19T17:59:36;12.40;99.90
35603;DHT22;21725;50.836;4.368;2023-02-19T18:02:36;12.60;99.90
35603;DHT22;21725;50.836;4.368;2023-02-19T18:05:37;12.60;99.90
35603;DHT22;21725;50.836;4.368;2023-02-19T18:08:38;12.50;99.90
35603;DHT22;21725;50.836;4.368;2023-02-19T18:11:45;12.40;99.90
35603;DHT22;21725;50.836;4.368;2023-02-19T18:14:46;12.30;99.90
35603;DHT22;21725;50.836;4.368;2023-02-19T18:17:47;12.40;99.90
35603;DHT22;21725;50.836;4.368;2023-02-19T18:20:48;12.50;99.90
35603;DHT22;21725;50.836;4.368;2023-02-19T18:23:49;12.50;99.70
35603;DHT22;21725;50.836;4.368;2023-02-19T18:26:49;12.30;99.90
35603;DHT22;21725;50.836;4.368;2023-02-19T18:29:51;12.20;99.90
35603;DHT22;21725;50.836;4.368;2023-02-19T18:32:53;12.30;99.90
35603;DHT22;21725;50.836;4.368;2023-02-19T18:35:53;12.40;99.90
35603;DHT22;21725;50.836;4.368;2023-02-19T18:38:57;12.40;99.90
35603;DHT22;21725;50.836;4.368;2023-02-19T18:42:03;12.20;99.90
35603;DHT22;21725;50.836;4.368;2023-02-19T18:45:10;12.10;99.90
35603;DHT22;21725;50.836;4.368;2023-02-19T18:48:11;12.10;99.90
35603;DHT22;21725;50.836;4.368;2023-02-19T18:51:12;12.10;99.90
35603;DHT22;21725;50.836;4.368;2023-02-19T18:54:13;12.20;99.90
35603;DHT22;21725;50.836;4.368;2023-02-19T18:57:14;12.10;99.90
35603;DHT22;21725;50.836;4.368;2023-02-19T19:00:23;12.10;99.90
35603;DHT22;21725;50.836;4.368;2023-02-19T19:03:28;11.90;99.90
35603;DHT22;21725;50.836;4.368;2023-02-19T19:06:29;12.00;99.90
35603;DHT22;21725;50.836;4.368;2023-02-19T19:09:39;11.90;99.90
35603;DHT22;21725;50.836;4.368;2023-02-19T19:12:40;11.80;99.90
35603;DHT22;21725;50.836;4.368;2023-02-19T19:15:41;12.00;99.90
35603;DHT22;21725;50.836;4.368;2023-02-19T19:18:46;12.00;99.90
35603;DHT22;21725;50.836;4.368;2023-02-19T19:21:54;11.90;99.90
35603;DHT22;21725;50.836;4.368;2023-02-19T19:24:58;11.90;99.90
35603;DHT22;21725;50.836;4.368;2023-02-19T19:27:58;12.10;99.90
35603;DHT22;21725;50.836;4.368;2023-02-19T19:31:18;11.90;99.90
35603;DHT22;21725;50.836;4.368;2023-02-19T19:34:19;12.00;99.90
35603;DHT22;21725;50.836;4.368;2023-02-19T19:37:20;12.00;99.90
35603;DHT22;21725;50.836;4.368;2023-02-19T19:40:37;12.00;99.90
35603;DHT22;21725;50.836;4.368;2023-02-19T19:43:48;12.00;99.90
35603;DHT22;21725;50.836;4.368;2023-02-19T19:46:49;12.30;99.90
35603;DHT22;21725;50.836;4.368;2023-02-19T19:49:50;12.10;99.90
35603;DHT22;21725;50.836;4.368;2023-02-19T19:52:51;12.00;99.90
35603;DHT22;21725;50.836;4.368;2023-02-19T19:55:52;12.10;99.90
35603;DHT22;21725;50.836;4.368;2023-02-19T19:58:53;11.90;99.90
35603;DHT22;21725;50.836;4.368;2023-02-19T20:01:55;11.90;99.90
35603;DHT22;21725;50.836;4.368;2023-02-19T20:05:01;11.80;99.90
35603;DHT22;21725;50.836;4.368;2023-02-19T20:08:04;11.80;99.90
35603;DHT22;21725;50.836;4.368;2023-02-19T20:11:05;11.70;99.90
35603;DHT22;21725;50.836;4.368;2023-02-19T20:14:08;11.60;99.90
35603;DHT22;21725;50.836;4.368;2023-02-19T20:17:11;11.60;99.90
35603;DHT22;21725;50.836;4.368;2023-02-19T20:20:16;11.60;99.90
35603;DHT22;21725;50.836;4.368;2023-02-19T20:23:17;11.70;99.90
35603;DHT22;21725;50.836;4.368;2023-02-19T20:26:28;10.70;99.90
35603;DHT22;21725;50.836;4.368;2023-02-19T20:29:32;11.70;99.90
35603;DHT22;21725;50.836;4.368;2023-02-19T20:32:35;11.40;99.90
35603;DHT22;21725;50.836;4.368;2023-02-19T20:35:36;11.30;99.90
35603;DHT22;21725;50.836;4.368;2023-02-19T20:38:37;11.30;99.90
35603;DHT22;21725;50.836;4.368;2023-02-19T20:41:37;11.30;99.90
35603;DHT22;21725;50.836;4.368;2023-02-19T20:44:38;11.40;99.90
35603;DHT22;21725;50.836;4.368;2023-02-19T20:47:41;11.40;99.90
35603;DHT22;21725;50.836;4.368;2023-02-19T20:50:43;11.40;99.90
35603;DHT22;21725;50.836;4.368;2023-02-19T20:53:43;11.50;99.90
35603;DHT22;21725;50.836;4.368;2023-02-19T20:56:49;11.50;99.90
35603;DHT22;21725;50.836;4.368;2023-02-19T20:59:52;11.50;99.90
35603;DHT22;21725;50.836;4.368;2023-02-19T21:02:53;11.50;99.90
35603;DHT22;21725;50.836;4.368;2023-02-19T21:05:53;11.50;99.90
35603;DHT22;21725;50.836;4.368;2023-02-19T21:08:54;11.40;99.90
35603;DHT22;21725;50.836;4.368;2023-02-19T21:11:55;11.10;99.90
35603;DHT22;21725;50.836;4.368;2023-02-19T21:14:59;11.30;99.90
35603;DHT22;21725;50.836;4.368;2023-02-19T21:18:07;11.30;99.90
35603;DHT22;21725;50.836;4.368;2023-02-19T21:21:11;11.40;99.90
35603;DHT22;21725;50.836;4.368;2023-02-19T21:24:13;11.40;99.90
35603;DHT22;21725;50.836;4.368;2023-02-19T21:27:14;11.40;99.90
35603;DHT22;21725;50.836;4.368;2023-02-19T21:30:16;11.40;99.90
35603;DHT22;21725;50.836;4.368;2023-02-19T21:33:16;11.40;99.90
35603;DHT22;21725;50.836;4.368;2023-02-19T21:36:17;11.30;99.90
35603;DHT22;21725;50.836;4.368;2023-02-19T21:39:20;11.10;99.90
35603;DHT22;21725;50.836;4.368;2023-02-19T21:42:21;11.20;99.90
35603;DHT22;21725;50.836;4.368;2023-02-19T21:45:24;11.20;99.90
35603;DHT22;21725;50.836;4.368;2023-02-19T21:48:24;11.50;99.90
35603;DHT22;21725;50.836;4.368;2023-02-19T21:51:34;11.10;99.90
35603;DHT22;21725;50.836;4.368;2023-02-19T21:54:35;11.10;99.90
35603;DHT22;21725;50.836;4.368;2023-02-19T21:57:36;11.00;99.90
35603;DHT22;21725;50.836;4.368;2023-02-19T22:00:37;11.10;99.90
35603;DHT22;21725;50.836;4.368;2023-02-19T22:03:43;10.30;99.90
35603;DHT22;21725;50.836;4.368;2023-02-19T22:06:44;11.00;99.90
35603;DHT22;21725;50.836;4.368;2023-02-19T22:09:48;11.00;99.90
35603;DHT22;21725;50.836;4.368;2023-02-19T22:12:51;11.00;99.90
35603;DHT22;21725;50.836;4.368;2023-02-19T22:15:52;10.90;99.90
35603;DHT22;21725;50.836;4.368;2023-02-19T22:18:57;11.10;99.90
35603;DHT22;21725;50.836;4.368;2023-02-19T22:22:07;11.10;99.90
35603;DHT22;21725;50.836;4.368;2023-02-19T22:25:08;11.10;99.90
35603;DHT22;21725;50.836;4.368;2023-02-19T22:28:08;11.10;99.90
35603;DHT22;21725;50.836;4.368;2023-02-19T22:31:09;11.10;99.90